sensor_id;sensor_type;location;lat;lon;timestamp;temperature;humidity
68257;DHT22;55069;51.568;4.656;2023-05-29T00:00:14;11.99;80.34
68257;DHT22;55069;51.568;4.656;2023-05-29T00:02:41;11.97;79.98
68257;DHT22;55069;51.568;4.656;2023-05-29T00:05:11;11.92;79.71
68257;DHT22;55069;51.568;4.656;2023-05-29T00:07:38;11.89;79.40
68257;DHT22;55069;51.568;4.656;2023-05-29T00:10:05;11.87;79.21
68257;DHT22;55069;51.568;4.656;2023-05-29T00:12:31;11.90;78.85
68257;DHT22;55069;51.568;4.656;2023-05-29T00:14:57;11.90;78.17
68257;DHT22;55069;51.568;4.656;2023-05-29T00:17:23;11.83;77.90
68257;DHT22;55069;51.568;4.656;2023-05-29T00:19:49;11.81;77.92
68257;DHT22;55069;51.568;4.656;2023-05-29T00:22:15;11.74;77.67
68257;DHT22;55069;51.568;4.656;2023-05-29T00:24:40;11.79;77.40
68257;DHT22;55069;51.568;4.656;2023-05-29T00:27:06;11.71;77.92
68257;DHT22;55069;51.568;4.656;2023-05-29T00:29:32;11.69;77.74
68257;DHT22;55069;51.568;4.656;2023-05-29T00:31:57;11.66;77.88
68257;DHT22;55069;51.568;4.656;2023-05-29T00:34:23;11.61;77.91
68257;DHT22;55069;51.568;4.656;2023-05-29T00:36:50;11.52;77.92
68257;DHT22;55069;51.568;4.656;2023-05-29T00:39:16;11.47;77.77
68257;DHT22;55069;51.568;4.656;2023-05-29T00:41:42;11.50;77.83
68257;DHT22;55069;51.568;4.656;2023-05-29T00:44:07;11.44;77.38
68257;DHT22;55069;51.568;4.656;2023-05-29T00:46:34;11.44;77.65
68257;DHT22;55069;51.568;4.656;2023-05-29T00:49:01;11.48;77.68
68257;DHT22;55069;51.568;4.656;2023-05-29T00:51:28;11.44;77.84
68257;DHT22;55069;51.568;4.656;2023-05-29T00:53:54;11.35;77.81
68257;DHT22;55069;51.568;4.656;2023-05-29T00:56:21;11.38;78.08
68257;DHT22;55069;51.568;4.656;2023-05-29T00:58:49;11.32;78.11
68257;DHT22;55069;51.568;4.656;2023-05-29T01:01:18;11.31;78.14
68257;DHT22;55069;51.568;4.656;2023-05-29T01:03:44;11.26;78.22
68257;DHT22;55069;51.568;4.656;2023-05-29T01:06:11;11.21;78.63
68257;DHT22;55069;51.568;4.656;2023-05-29T01:08:37;11.27;78.54
68257;DHT22;55069;51.568;4.656;2023-05-29T01:14:07;11.21;78.74
68257;DHT22;55069;51.568;4.656;2023-05-29T01:16:43;11.14;79.03
68257;DHT22;55069;51.568;4.656;2023-05-29T01:19:33;11.14;79.16
68257;DHT22;55069;51.568;4.656;2023-05-29T01:25:11;11.09;79.46
68257;DHT22;55069;51.568;4.656;2023-05-29T01:27:42;11.07;79.23
68257;DHT22;55069;51.568;4.656;2023-05-29T01:30:11;11.03;79.56
68257;DHT22;55069;51.568;4.656;2023-05-29T01:32:37;10.97;79.91
68257;DHT22;55069;51.568;4.656;2023-05-29T01:35:04;11.01;79.95
68257;DHT22;55069;51.568;4.656;2023-05-29T01:37:30;10.96;79.97
68257;DHT22;55069;51.568;4.656;2023-05-29T01:39:55;10.96;80.08
68257;DHT22;55069;51.568;4.656;2023-05-29T01:42:22;10.96;79.76
68257;DHT22;55069;51.568;4.656;2023-05-29T01:44:48;10.95;80.01
68257;DHT22;55069;51.568;4.656;2023-05-29T01:47:15;10.93;79.91
68257;DHT22;55069;51.568;4.656;2023-05-29T01:49:41;10.88;80.15
68257;DHT22;55069;51.568;4.656;2023-05-29T01:52:10;10.84;80.48
68257;DHT22;55069;51.568;4.656;2023-05-29T01:54:36;10.82;80.67
68257;DHT22;55069;51.568;4.656;2023-05-29T01:57:02;10.71;81.34
68257;DHT22;55069;51.568;4.656;2023-05-29T01:59:33;10.75;81.43
68257;DHT22;55069;51.568;4.656;2023-05-29T02:02:08;10.72;81.48
68257;DHT22;55069;51.568;4.656;2023-05-29T02:04:34;10.66;81.69
68257;DHT22;55069;51.568;4.656;2023-05-29T02:06:59;10.62;81.82
68257;DHT22;55069;51.568;4.656;2023-05-29T02:09:25;10.56;82.35
68257;DHT22;55069;51.568;4.656;2023-05-29T02:11:51;10.52;82.38
68257;DHT22;55069;51.568;4.656;2023-05-29T02:14:17;10.53;82.34
68257;DHT22;55069;51.568;4.656;2023-05-29T02:16:43;10.52;82.66
68257;DHT22;55069;51.568;4.656;2023-05-29T02:19:10;10.51;82.91
68257;DHT22;55069;51.568;4.656;2023-05-29T02:21:39;10.45;82.85
68257;DHT22;55069;51.568;4.656;2023-05-29T02:24:06;10.40;83.12
68257;DHT22;55069;51.568;4.656;2023-05-29T02:26:33;10.41;83.22
68257;DHT22;55069;51.568;4.656;2023-05-29T02:29:02;10.41;83.19
68257;DHT22;55069;51.568;4.656;2023-05-29T02:31:28;10.40;83.36
68257;DHT22;55069;51.568;4.656;2023-05-29T02:33:53;10.30;83.43
68257;DHT22;55069;51.568;4.656;2023-05-29T02:36:21;10.30;83.59
68257;DHT22;55069;51.568;4.656;2023-05-29T02:38:47;10.34;83.41
68257;DHT22;55069;51.568;4.656;2023-05-29T02:41:12;10.31;83.35
68257;DHT22;55069;51.568;4.656;2023-05-29T02:43:38;10.22;83.46
68257;DHT22;55069;51.568;4.656;2023-05-29T02:46:04;10.22;83.42
68257;DHT22;55069;51.568;4.656;2023-05-29T02:48:29;10.21;83.39
68257;DHT22;55069;51.568;4.656;2023-05-29T02:50:55;10.28;83.08
68257;DHT22;55069;51.568;4.656;2023-05-29T02:53:21;10.27;83.20
68257;DHT22;55069;51.568;4.656;2023-05-29T02:55:48;10.22;83.28
68257;DHT22;55069;51.568;4.656;2023-05-29T02:58:14;10.24;83.30
68257;DHT22;55069;51.568;4.656;2023-05-29T03:00:41;10.17;83.50
68257;DHT22;55069;51.568;4.656;2023-05-29T03:03:07;10.15;83.41
68257;DHT22;55069;51.568;4.656;2023-05-29T03:05:33;10.10;83.56
68257;DHT22;55069;51.568;4.656;2023-05-29T03:07:58;10.05;83.71
68257;DHT22;55069;51.568;4.656;2023-05-29T03:10:24;10.05;83.58
68257;DHT22;55069;51.568;4.656;2023-05-29T03:12:49;10.04;83.80
68257;DHT22;55069;51.568;4.656;2023-05-29T03:15:16;10.04;83.72
68257;DHT22;55069;51.568;4.656;2023-05-29T03:17:46;10.11;83.42
68257;DHT22;55069;51.568;4.656;2023-05-29T03:20:15;10.04;83.55
68257;DHT22;55069;51.568;4.656;2023-05-29T03:22:41;9.97;83.85
68257;DHT22;55069;51.568;4.656;2023-05-29T03:25:08;9.94;83.92
68257;DHT22;55069;51.568;4.656;2023-05-29T03:27:33;9.94;83.97
68257;DHT22;55069;51.568;4.656;2023-05-29T03:30:06;9.97;83.66
68257;DHT22;55069;51.568;4.656;2023-05-29T03:32:32;9.93;83.87
68257;DHT22;55069;51.568;4.656;2023-05-29T03:34:58;9.90;83.89
68257;DHT22;55069;51.568;4.656;2023-05-29T03:37:23;9.93;83.59
68257;DHT22;55069;51.568;4.656;2023-05-29T03:39:50;9.93;83.54
68257;DHT22;55069;51.568;4.656;2023-05-29T03:42:17;9.91;83.49
68257;DHT22;55069;51.568;4.656;2023-05-29T03:44:43;9.84;83.72
68257;DHT22;55069;51.568;4.656;2023-05-29T03:47:10;9.90;83.39
68257;DHT22;55069;51.568;4.656;2023-05-29T03:49:36;9.89;83.54
68257;DHT22;55069;51.568;4.656;2023-05-29T03:52:02;9.89;83.56
68257;DHT22;55069;51.568;4.656;2023-05-29T03:54:28;9.86;83.52
68257;DHT22;55069;51.568;4.656;2023-05-29T03:56:54;9.90;83.17
68257;DHT22;55069;51.568;4.656;2023-05-29T03:59:24;9.82;83.65
68257;DHT22;55069;51.568;4.656;2023-05-29T04:01:49;9.87;83.44
68257;DHT22;55069;51.568;4.656;2023-05-29T04:04:15;9.83;83.64
68257;DHT22;55069;51.568;4.656;2023-05-29T04:06:40;9.84;83.44
68257;DHT22;55069;51.568;4.656;2023-05-29T04:09:07;9.83;83.63
68257;DHT22;55069;51.568;4.656;2023-05-29T04:11:34;9.90;83.38
68257;DHT22;55069;51.568;4.656;2023-05-29T04:14:00;9.90;83.29
68257;DHT22;55069;51.568;4.656;2023-05-29T04:16:27;9.87;83.28
68257;DHT22;55069;51.568;4.656;2023-05-29T04:18:53;9.90;83.10
68257;DHT22;55069;51.568;4.656;2023-05-29T04:21:21;9.90;83.05
68257;DHT22;55069;51.568;4.656;2023-05-29T04:23:47;9.96;82.96
68257;DHT22;55069;51.568;4.656;2023-05-29T04:26:12;9.94;82.68
68257;DHT22;55069;51.568;4.656;2023-05-29T04:28:39;9.97;82.63
68257;DHT22;55069;51.568;4.656;2023-05-29T04:31:05;10.00;82.30
68257;DHT22;55069;51.568;4.656;2023-05-29T04:33:32;9.98;82.23
68257;DHT22;55069;51.568;4.656;2023-05-29T04:35:58;9.98;82.10
68257;DHT22;55069;51.568;4.656;2023-05-29T04:38:26;10.04;81.97
68257;DHT22;55069;51.568;4.656;2023-05-29T04:40:54;10.03;81.99
68257;DHT22;55069;51.568;4.656;2023-05-29T04:43:23;10.08;82.08
68257;DHT22;55069;51.568;4.656;2023-05-29T04:45:59;10.11;81.86
68257;DHT22;55069;51.568;4.656;2023-05-29T04:48:26;10.10;81.26
68257;DHT22;55069;51.568;4.656;2023-05-29T04:50:52;10.14;81.31
68257;DHT22;55069;51.568;4.656;2023-05-29T04:53:18;10.15;81.29
68257;DHT22;55069;51.568;4.656;2023-05-29T04:55:43;10.18;80.96
68257;DHT22;55069;51.568;4.656;2023-05-29T04:58:09;10.22;81.24
68257;DHT22;55069;51.568;4.656;2023-05-29T05:00:38;10.22;81.05
68257;DHT22;55069;51.568;4.656;2023-05-29T05:03:04;10.35;80.41
68257;DHT22;55069;51.568;4.656;2023-05-29T05:05:29;10.31;80.37
68257;DHT22;55069;51.568;4.656;2023-05-29T05:07:58;10.35;80.48
68257;DHT22;55069;51.568;4.656;2023-05-29T05:10:24;10.45;80.33
68257;DHT22;55069;51.568;4.656;2023-05-29T05:12:49;10.44;80.01
68257;DHT22;55069;51.568;4.656;2023-05-29T05:15:17;10.45;80.27
68257;DHT22;55069;51.568;4.656;2023-05-29T05:17:43;10.46;79.93
68257;DHT22;55069;51.568;4.656;2023-05-29T05:20:10;10.56;79.49
68257;DHT22;55069;51.568;4.656;2023-05-29T05:22:36;10.56;79.49
68257;DHT22;55069;51.568;4.656;2023-05-29T05:25:02;10.58;79.70
68257;DHT22;55069;51.568;4.656;2023-05-29T05:27:29;10.56;79.19
68257;DHT22;55069;51.568;4.656;2023-05-29T05:29:55;10.66;78.88
68257;DHT22;55069;51.568;4.656;2023-05-29T05:32:21;10.68;78.99
68257;DHT22;55069;51.568;4.656;2023-05-29T05:34:53;10.68;78.90
68257;DHT22;55069;51.568;4.656;2023-05-29T05:37:18;10.76;78.59
68257;DHT22;55069;51.568;4.656;2023-05-29T05:39:45;10.77;79.13
68257;DHT22;55069;51.568;4.656;2023-05-29T05:42:11;10.79;78.22
68257;DHT22;55069;51.568;4.656;2023-05-29T05:45:03;10.89;78.04
68257;DHT22;55069;51.568;4.656;2023-05-29T05:47:29;10.89;77.57
68257;DHT22;55069;51.568;4.656;2023-05-29T05:49:56;11.01;77.52
68257;DHT22;55069;51.568;4.656;2023-05-29T05:52:23;11.06;77.04
68257;DHT22;55069;51.568;4.656;2023-05-29T05:54:49;11.09;76.49
68257;DHT22;55069;51.568;4.656;2023-05-29T05:57:16;11.11;76.50
68257;DHT22;55069;51.568;4.656;2023-05-29T05:59:42;11.20;76.42
68257;DHT22;55069;51.568;4.656;2023-05-29T06:02:07;11.20;76.07
68257;DHT22;55069;51.568;4.656;2023-05-29T06:04:34;11.24;76.19
68257;DHT22;55069;51.568;4.656;2023-05-29T06:06:59;11.35;76.38
68257;DHT22;55069;51.568;4.656;2023-05-29T06:09:25;11.42;76.36
68257;DHT22;55069;51.568;4.656;2023-05-29T06:11:51;11.52;75.31
68257;DHT22;55069;51.568;4.656;2023-05-29T06:14:17;11.61;75.17
68257;DHT22;55069;51.568;4.656;2023-05-29T06:16:43;11.65;74.80
68257;DHT22;55069;51.568;4.656;2023-05-29T06:19:09;11.66;74.15
68257;DHT22;55069;51.568;4.656;2023-05-29T06:21:48;11.79;75.24
68257;DHT22;55069;51.568;4.656;2023-05-29T06:24:14;11.75;73.65
68257;DHT22;55069;51.568;4.656;2023-05-29T06:26:40;11.79;73.83
68257;DHT22;55069;51.568;4.656;2023-05-29T06:29:08;11.82;73.51
68257;DHT22;55069;51.568;4.656;2023-05-29T06:31:33;11.86;72.89
68257;DHT22;55069;51.568;4.656;2023-05-29T06:33:59;11.99;73.50
68257;DHT22;55069;51.568;4.656;2023-05-29T06:36:25;11.95;73.61
68257;DHT22;55069;51.568;4.656;2023-05-29T06:38:51;12.09;73.49
68257;DHT22;55069;51.568;4.656;2023-05-29T06:41:17;12.17;73.30
68257;DHT22;55069;51.568;4.656;2023-05-29T06:43:43;12.37;72.70
68257;DHT22;55069;51.568;4.656;2023-05-29T06:46:10;12.38;71.73
68257;DHT22;55069;51.568;4.656;2023-05-29T06:48:35;12.37;71.25
68257;DHT22;55069;51.568;4.656;2023-05-29T06:51:02;12.32;71.67
68257;DHT22;55069;51.568;4.656;2023-05-29T06:53:39;12.41;71.29
68257;DHT22;55069;51.568;4.656;2023-05-29T06:56:06;12.47;71.24
68257;DHT22;55069;51.568;4.656;2023-05-29T06:58:33;12.50;70.76
68257;DHT22;55069;51.568;4.656;2023-05-29T07:00:59;12.54;70.60
68257;DHT22;55069;51.568;4.656;2023-05-29T07:03:30;12.57;70.36
68257;DHT22;55069;51.568;4.656;2023-05-29T07:05:56;12.68;70.59
68257;DHT22;55069;51.568;4.656;2023-05-29T07:08:23;12.84;70.41
68257;DHT22;55069;51.568;4.656;2023-05-29T07:10:50;12.85;69.66
68257;DHT22;55069;51.568;4.656;2023-05-29T07:13:17;12.89;69.33
68257;DHT22;55069;51.568;4.656;2023-05-29T07:15:48;12.93;68.91
68257;DHT22;55069;51.568;4.656;2023-05-29T07:18:14;13.08;68.62
68257;DHT22;55069;51.568;4.656;2023-05-29T07:20:40;13.08;68.31
68257;DHT22;55069;51.568;4.656;2023-05-29T07:23:06;13.06;67.97
68257;DHT22;55069;51.568;4.656;2023-05-29T07:25:32;13.09;68.61
68257;DHT22;55069;51.568;4.656;2023-05-29T07:27:58;13.20;67.51
68257;DHT22;55069;51.568;4.656;2023-05-29T07:30:23;13.10;68.57
68257;DHT22;55069;51.568;4.656;2023-05-29T07:32:50;13.33;68.25
68257;DHT22;55069;51.568;4.656;2023-05-29T07:35:15;13.40;67.09
68257;DHT22;55069;51.568;4.656;2023-05-29T07:37:41;13.40;67.53
68257;DHT22;55069;51.568;4.656;2023-05-29T07:40:09;13.46;66.75
68257;DHT22;55069;51.568;4.656;2023-05-29T07:43:04;13.60;67.08
68257;DHT22;55069;51.568;4.656;2023-05-29T07:45:41;13.63;66.17
68257;DHT22;55069;51.568;4.656;2023-05-29T07:48:07;13.70;67.11
68257;DHT22;55069;51.568;4.656;2023-05-29T07:50:33;13.66;67.08
68257;DHT22;55069;51.568;4.656;2023-05-29T07:52:59;13.70;66.41
68257;DHT22;55069;51.568;4.656;2023-05-29T07:55:26;13.73;65.24
68257;DHT22;55069;51.568;4.656;2023-05-29T07:57:52;13.89;65.57
68257;DHT22;55069;51.568;4.656;2023-05-29T08:00:19;13.89;64.55
68257;DHT22;55069;51.568;4.656;2023-05-29T08:02:47;14.05;65.70
68257;DHT22;55069;51.568;4.656;2023-05-29T08:05:27;14.21;65.37
68257;DHT22;55069;51.568;4.656;2023-05-29T08:07:54;14.33;65.16
68257;DHT22;55069;51.568;4.656;2023-05-29T08:10:19;14.50;65.27
68257;DHT22;55069;51.568;4.656;2023-05-29T08:12:45;14.22;64.84
68257;DHT22;55069;51.568;4.656;2023-05-29T08:15:11;14.26;65.62
68257;DHT22;55069;51.568;4.656;2023-05-29T08:17:38;14.18;65.06
68257;DHT22;55069;51.568;4.656;2023-05-29T08:20:03;14.34;65.08
68257;DHT22;55069;51.568;4.656;2023-05-29T08:22:32;14.23;64.42
68257;DHT22;55069;51.568;4.656;2023-05-29T08:24:59;14.29;64.79
68257;DHT22;55069;51.568;4.656;2023-05-29T08:27:24;14.16;63.88
68257;DHT22;55069;51.568;4.656;2023-05-29T08:29:50;14.21;63.76
68257;DHT22;55069;51.568;4.656;2023-05-29T08:32:16;14.25;63.86
68257;DHT22;55069;51.568;4.656;2023-05-29T08:34:42;14.33;63.85
68257;DHT22;55069;51.568;4.656;2023-05-29T08:37:07;14.67;64.36
68257;DHT22;55069;51.568;4.656;2023-05-29T08:39:33;15.02;62.64
68257;DHT22;55069;51.568;4.656;2023-05-29T08:42:05;15.02;62.19
68257;DHT22;55069;51.568;4.656;2023-05-29T08:44:32;15.08;61.87
68257;DHT22;55069;51.568;4.656;2023-05-29T08:47:01;15.35;61.95
68257;DHT22;55069;51.568;4.656;2023-05-29T08:49:29;15.52;61.32
68257;DHT22;55069;51.568;4.656;2023-05-29T08:52:08;15.31;61.07
68257;DHT22;55069;51.568;4.656;2023-05-29T08:54:35;15.39;61.37
68257;DHT22;55069;51.568;4.656;2023-05-29T08:57:01;15.38;61.68
68257;DHT22;55069;51.568;4.656;2023-05-29T08:59:27;15.55;61.46
68257;DHT22;55069;51.568;4.656;2023-05-29T09:01:54;15.56;61.44
68257;DHT22;55069;51.568;4.656;2023-05-29T09:04:20;15.57;60.10
68257;DHT22;55069;51.568;4.656;2023-05-29T09:06:46;15.56;60.18
68257;DHT22;55069;51.568;4.656;2023-05-29T09:09:12;15.35;61.28
68257;DHT22;55069;51.568;4.656;2023-05-29T09:11:37;15.42;59.95
68257;DHT22;55069;51.568;4.656;2023-05-29T09:14:03;15.57;61.13
68257;DHT22;55069;51.568;4.656;2023-05-29T09:16:29;15.59;60.13
68257;DHT22;55069;51.568;4.656;2023-05-29T09:19:12;15.84;60.31
68257;DHT22;55069;51.568;4.656;2023-05-29T09:21:38;16.03;60.03
68257;DHT22;55069;51.568;4.656;2023-05-29T09:24:04;16.04;59.32
68257;DHT22;55069;51.568;4.656;2023-05-29T09:26:31;15.93;59.77
68257;DHT22;55069;51.568;4.656;2023-05-29T09:28:57;16.38;59.92
68257;DHT22;55069;51.568;4.656;2023-05-29T09:31:23;16.21;59.78
68257;DHT22;55069;51.568;4.656;2023-05-29T09:33:49;15.97;59.69
68257;DHT22;55069;51.568;4.656;2023-05-29T09:36:22;15.67;59.86
68257;DHT22;55069;51.568;4.656;2023-05-29T09:38:48;15.77;60.32
68257;DHT22;55069;51.568;4.656;2023-05-29T09:41:20;15.59;59.39
68257;DHT22;55069;51.568;4.656;2023-05-29T09:43:48;15.94;60.55
68257;DHT22;55069;51.568;4.656;2023-05-29T09:46:16;16.26;59.64
68257;DHT22;55069;51.568;4.656;2023-05-29T09:48:43;16.58;59.03
68257;DHT22;55069;51.568;4.656;2023-05-29T09:51:29;16.44;59.03
68257;DHT22;55069;51.568;4.656;2023-05-29T09:53:55;16.35;58.38
68257;DHT22;55069;51.568;4.656;2023-05-29T09:56:26;16.35;59.01
68257;DHT22;55069;51.568;4.656;2023-05-29T09:58:56;16.22;59.06
68257;DHT22;55069;51.568;4.656;2023-05-29T10:01:21;16.41;58.57
68257;DHT22;55069;51.568;4.656;2023-05-29T10:03:48;16.08;58.88
68257;DHT22;55069;51.568;4.656;2023-05-29T10:06:18;16.36;58.97
68257;DHT22;55069;51.568;4.656;2023-05-29T10:08:46;16.21;58.95
68257;DHT22;55069;51.568;4.656;2023-05-29T10:11:17;16.55;59.55
68257;DHT22;55069;51.568;4.656;2023-05-29T10:13:47;16.61;58.58
68257;DHT22;55069;51.568;4.656;2023-05-29T10:16:15;17.04;59.39
68257;DHT22;55069;51.568;4.656;2023-05-29T10:18:45;16.93;57.95
68257;DHT22;55069;51.568;4.656;2023-05-29T10:21:14;17.38;57.75
68257;DHT22;55069;51.568;4.656;2023-05-29T10:23:43;16.91;57.46
68257;DHT22;55069;51.568;4.656;2023-05-29T10:26:26;16.77;57.19
68257;DHT22;55069;51.568;4.656;2023-05-29T10:29:29;16.99;58.94
68257;DHT22;55069;51.568;4.656;2023-05-29T10:37:43;17.35;58.99
68257;DHT22;55069;51.568;4.656;2023-05-29T10:40:10;17.45;57.93
68257;DHT22;55069;51.568;4.656;2023-05-29T10:45:04;17.24;58.20
68257;DHT22;55069;51.568;4.656;2023-05-29T10:47:30;17.13;57.56
68257;DHT22;55069;51.568;4.656;2023-05-29T10:50:00;16.82;57.56
68257;DHT22;55069;51.568;4.656;2023-05-29T10:52:26;16.84;58.45
68257;DHT22;55069;51.568;4.656;2023-05-29T10:54:55;16.96;58.27
68257;DHT22;55069;51.568;4.656;2023-05-29T10:57:23;17.14;58.33
68257;DHT22;55069;51.568;4.656;2023-05-29T10:59:58;17.27;58.66
68257;DHT22;55069;51.568;4.656;2023-05-29T11:02:24;17.79;57.45
68257;DHT22;55069;51.568;4.656;2023-05-29T11:05:25;17.74;58.13
68257;DHT22;55069;51.568;4.656;2023-05-29T11:07:56;17.96;56.09
68257;DHT22;55069;51.568;4.656;2023-05-29T11:13:06;18.12;56.45
68257;DHT22;55069;51.568;4.656;2023-05-29T11:15:32;17.47;55.75
68257;DHT22;55069;51.568;4.656;2023-05-29T11:18:06;17.90;55.88
68257;DHT22;55069;51.568;4.656;2023-05-29T11:20:50;17.62;55.75
68257;DHT22;55069;51.568;4.656;2023-05-29T11:23:17;17.45;55.95
68257;DHT22;55069;51.568;4.656;2023-05-29T11:25:44;17.72;55.61
68257;DHT22;55069;51.568;4.656;2023-05-29T11:28:11;17.58;55.96
68257;DHT22;55069;51.568;4.656;2023-05-29T11:30:46;17.71;56.35
68257;DHT22;55069;51.568;4.656;2023-05-29T11:33:20;18.03;54.48
68257;DHT22;55069;51.568;4.656;2023-05-29T11:35:57;18.38;55.10
68257;DHT22;55069;51.568;4.656;2023-05-29T11:38:24;18.26;53.49
68257;DHT22;55069;51.568;4.656;2023-05-29T11:40:51;18.02;52.91
68257;DHT22;55069;51.568;4.656;2023-05-29T11:43:17;18.03;54.30
68257;DHT22;55069;51.568;4.656;2023-05-29T11:45:42;18.24;54.57
68257;DHT22;55069;51.568;4.656;2023-05-29T11:48:08;18.41;53.24
68257;DHT22;55069;51.568;4.656;2023-05-29T11:50:33;18.60;53.08
68257;DHT22;55069;51.568;4.656;2023-05-29T11:53:01;18.54;50.33
68257;DHT22;55069;51.568;4.656;2023-05-29T11:55:27;18.44;51.66
68257;DHT22;55069;51.568;4.656;2023-05-29T11:58:00;18.54;50.73
68257;DHT22;55069;51.568;4.656;2023-05-29T12:00:38;18.38;51.64
68257;DHT22;55069;51.568;4.656;2023-05-29T12:03:06;18.26;50.37
68257;DHT22;55069;51.568;4.656;2023-05-29T12:05:44;18.41;50.74
68257;DHT22;55069;51.568;4.656;2023-05-29T12:08:10;18.47;50.52
68257;DHT22;55069;51.568;4.656;2023-05-29T12:10:35;18.69;50.48
68257;DHT22;55069;51.568;4.656;2023-05-29T12:13:01;18.76;47.76
68257;DHT22;55069;51.568;4.656;2023-05-29T12:15:27;18.72;50.10
68257;DHT22;55069;51.568;4.656;2023-05-29T12:17:54;18.69;49.24
68257;DHT22;55069;51.568;4.656;2023-05-29T12:20:23;19.05;51.43
68257;DHT22;55069;51.568;4.656;2023-05-29T12:22:49;19.54;48.80
68257;DHT22;55069;51.568;4.656;2023-05-29T12:25:17;19.39;47.98
68257;DHT22;55069;51.568;4.656;2023-05-29T12:27:44;19.54;48.06
68257;DHT22;55069;51.568;4.656;2023-05-29T12:30:14;19.64;47.25
68257;DHT22;55069;51.568;4.656;2023-05-29T12:32:53;20.08;47.92
68257;DHT22;55069;51.568;4.656;2023-05-29T12:37:58;19.81;48.21
68257;DHT22;55069;51.568;4.656;2023-05-29T12:40:26;19.96;48.23
68257;DHT22;55069;51.568;4.656;2023-05-29T12:42:59;19.94;48.46
68257;DHT22;55069;51.568;4.656;2023-05-29T12:45:27;20.06;47.91
68257;DHT22;55069;51.568;4.656;2023-05-29T12:47:58;20.06;47.88
68257;DHT22;55069;51.568;4.656;2023-05-29T12:50:30;19.71;47.88
68257;DHT22;55069;51.568;4.656;2023-05-29T12:55:31;20.91;47.49
68257;DHT22;55069;51.568;4.656;2023-05-29T12:57:59;20.42;46.34
68257;DHT22;55069;51.568;4.656;2023-05-29T13:00:25;20.74;47.00
68257;DHT22;55069;51.568;4.656;2023-05-29T13:02:51;20.56;45.61
68257;DHT22;55069;51.568;4.656;2023-05-29T13:05:17;20.60;45.17
68257;DHT22;55069;51.568;4.656;2023-05-29T13:07:47;20.79;45.54
68257;DHT22;55069;51.568;4.656;2023-05-29T13:10:14;21.07;45.09
68257;DHT22;55069;51.568;4.656;2023-05-29T13:12:43;20.79;44.25
68257;DHT22;55069;51.568;4.656;2023-05-29T13:15:10;21.08;44.17
68257;DHT22;55069;51.568;4.656;2023-05-29T13:17:37;21.38;45.39
68257;DHT22;55069;51.568;4.656;2023-05-29T13:20:02;21.46;43.74
68257;DHT22;55069;51.568;4.656;2023-05-29T13:22:31;21.55;43.80
68257;DHT22;55069;51.568;4.656;2023-05-29T13:24:58;21.14;44.26
68257;DHT22;55069;51.568;4.656;2023-05-29T13:27:25;21.29;43.74
68257;DHT22;55069;51.568;4.656;2023-05-29T13:29:51;20.84;45.70
68257;DHT22;55069;51.568;4.656;2023-05-29T13:32:17;20.94;43.65
68257;DHT22;55069;51.568;4.656;2023-05-29T13:34:42;20.81;45.84
68257;DHT22;55069;51.568;4.656;2023-05-29T13:37:08;21.43;45.88
68257;DHT22;55069;51.568;4.656;2023-05-29T13:39:33;21.70;44.38
68257;DHT22;55069;51.568;4.656;2023-05-29T13:41:59;21.35;41.97
68257;DHT22;55069;51.568;4.656;2023-05-29T13:44:25;20.73;43.65
68257;DHT22;55069;51.568;4.656;2023-05-29T13:46:51;20.60;45.19
68257;DHT22;55069;51.568;4.656;2023-05-29T13:49:17;20.57;47.14
68257;DHT22;55069;51.568;4.656;2023-05-29T13:51:43;20.66;44.27
68257;DHT22;55069;51.568;4.656;2023-05-29T13:54:10;20.52;46.70
68257;DHT22;55069;51.568;4.656;2023-05-29T13:56:36;20.52;43.94
68257;DHT22;55069;51.568;4.656;2023-05-29T13:59:01;20.77;46.12
68257;DHT22;55069;51.568;4.656;2023-05-29T14:01:30;20.77;44.83
68257;DHT22;55069;51.568;4.656;2023-05-29T14:03:56;20.52;43.72
68257;DHT22;55069;51.568;4.656;2023-05-29T14:06:22;20.88;43.76
68257;DHT22;55069;51.568;4.656;2023-05-29T14:08:47;20.87;44.42
68257;DHT22;55069;51.568;4.656;2023-05-29T14:11:13;20.02;46.56
68257;DHT22;55069;51.568;4.656;2023-05-29T14:13:38;19.86;48.59
68257;DHT22;55069;51.568;4.656;2023-05-29T14:16:04;19.43;47.83
68257;DHT22;55069;51.568;4.656;2023-05-29T14:18:30;19.41;48.42
68257;DHT22;55069;51.568;4.656;2023-05-29T14:20:55;19.88;47.56
68257;DHT22;55069;51.568;4.656;2023-05-29T14:23:21;19.51;47.88
68257;DHT22;55069;51.568;4.656;2023-05-29T14:25:47;19.37;45.29
68257;DHT22;55069;51.568;4.656;2023-05-29T14:28:12;19.12;45.87
68257;DHT22;55069;51.568;4.656;2023-05-29T14:30:38;19.49;48.26
68257;DHT22;55069;51.568;4.656;2023-05-29T14:33:04;19.45;46.29
68257;DHT22;55069;51.568;4.656;2023-05-29T14:35:30;20.15;47.46
68257;DHT22;55069;51.568;4.656;2023-05-29T14:37:56;20.04;44.71
68257;DHT22;55069;51.568;4.656;2023-05-29T14:40:22;20.47;47.13
68257;DHT22;55069;51.568;4.656;2023-05-29T14:42:48;20.83;45.66
68257;DHT22;55069;51.568;4.656;2023-05-29T14:45:14;20.32;48.27
68257;DHT22;55069;51.568;4.656;2023-05-29T14:47:40;19.50;52.10
68257;DHT22;55069;51.568;4.656;2023-05-29T14:50:06;19.30;52.34
68257;DHT22;55069;51.568;4.656;2023-05-29T14:52:32;19.37;54.72
68257;DHT22;55069;51.568;4.656;2023-05-29T14:55:01;19.57;54.06
68257;DHT22;55069;51.568;4.656;2023-05-29T14:57:27;20.21;52.52
68257;DHT22;55069;51.568;4.656;2023-05-29T14:59:52;20.34;51.95
68257;DHT22;55069;51.568;4.656;2023-05-29T15:02:18;21.02;49.06
68257;DHT22;55069;51.568;4.656;2023-05-29T15:04:43;20.90;43.80
68257;DHT22;55069;51.568;4.656;2023-05-29T15:07:09;21.15;44.61
68257;DHT22;55069;51.568;4.656;2023-05-29T15:09:35;20.95;46.31
68257;DHT22;55069;51.568;4.656;2023-05-29T15:12:01;20.29;44.88
68257;DHT22;55069;51.568;4.656;2023-05-29T15:14:28;20.49;45.70
68257;DHT22;55069;51.568;4.656;2023-05-29T15:16:53;20.57;47.20
68257;DHT22;55069;51.568;4.656;2023-05-29T15:19:20;20.63;50.24
68257;DHT22;55069;51.568;4.656;2023-05-29T15:21:45;20.46;51.13
68257;DHT22;55069;51.568;4.656;2023-05-29T15:24:11;19.81;53.53
68257;DHT22;55069;51.568;4.656;2023-05-29T15:26:36;19.85;53.35
68257;DHT22;55069;51.568;4.656;2023-05-29T15:29:02;20.39;51.34
68257;DHT22;55069;51.568;4.656;2023-05-29T15:31:28;20.05;49.31
68257;DHT22;55069;51.568;4.656;2023-05-29T15:33:53;19.86;50.40
68257;DHT22;55069;51.568;4.656;2023-05-29T15:36:19;19.47;52.57
68257;DHT22;55069;51.568;4.656;2023-05-29T15:38:48;20.21;52.33
68257;DHT22;55069;51.568;4.656;2023-05-29T15:41:14;19.95;51.71
68257;DHT22;55069;51.568;4.656;2023-05-29T15:43:40;20.70;51.77
68257;DHT22;55069;51.568;4.656;2023-05-29T15:46:06;21.39;50.34
68257;DHT22;55069;51.568;4.656;2023-05-29T15:48:31;20.84;48.71
68257;DHT22;55069;51.568;4.656;2023-05-29T15:50:57;20.36;47.67
68257;DHT22;55069;51.568;4.656;2023-05-29T15:53:22;20.52;49.34
68257;DHT22;55069;51.568;4.656;2023-05-29T15:55:48;20.92;48.37